createdAt,value
2022-08-25T00:00:13.535Z,100836.22
2022-08-25T00:02:54.995Z,100836.91
2022-08-25T00:05:32.143Z,100837.53
2022-08-25T00:08:02.286Z,100834.00
2022-08-25T00:10:30.974Z,100826.28
2022-08-25T00:12:59.481Z,100827.53
2022-08-25T00:15:28.621Z,100819.44
2022-08-25T00:17:56.478Z,100822.59
2022-08-25T00:20:25.605Z,100825.34
2022-08-25T00:22:53.515Z,100825.19
2022-08-25T00:25:21.990Z,100828.88
2022-08-25T00:27:52.776Z,100826.78
2022-08-25T00:30:20.643Z,100829.28
2022-08-25T00:32:52.551Z,100828.41
2022-08-25T00:35:26.518Z,100829.38
2022-08-25T00:37:54.480Z,100831.94
2022-08-25T00:40:25.519Z,100833.84
2022-08-25T00:42:54.591Z,100831.94
2022-08-25T00:45:23.671Z,100829.81
2022-08-25T00:47:53.167Z,100815.66
2022-08-25T00:50:22.832Z,100819.66
2022-08-25T00:52:59.154Z,100819.53
2022-08-25T00:55:34.501Z,100810.44
2022-08-25T00:58:14.208Z,100811.13
2022-08-25T01:00:46.825Z,100810.50
2022-08-25T01:03:14.969Z,100804.78
2022-08-25T01:05:43.804Z,100806.38
2022-08-25T01:08:13.324Z,100806.38
2022-08-25T01:10:45.333Z,100807.31
2022-08-25T01:13:31.435Z,100820.44
2022-08-25T01:15:59.990Z,100810.63
2022-08-25T01:18:29.144Z,100810.50
2022-08-25T01:21:00.325Z,100815.19
2022-08-25T01:23:28.143Z,100816.53
2022-08-25T01:26:13.805Z,100813.59
2022-08-25T01:29:03.695Z,100814.41
2022-08-25T01:31:32.047Z,100812.13
2022-08-25T01:34:00.852Z,100805.50
2022-08-25T01:36:30.430Z,100816.91
2022-08-25T01:38:58.677Z,100804.81
2022-08-25T01:41:41.484Z,100812.78
2022-08-25T01:44:09.318Z,100802.56
2022-08-25T01:46:42.094Z,100804.94
2022-08-25T01:49:10.761Z,100801.72
2022-08-25T01:51:44.802Z,100805.94
2022-08-25T01:54:12.484Z,100804.94
2022-08-25T01:56:40.202Z,100807.06
2022-08-25T01:59:08.008Z,100795.78
2022-08-25T02:01:35.922Z,100803.81
2022-08-25T02:04:04.365Z,100797.44
2022-08-25T02:06:33.902Z,100791.06
2022-08-25T02:09:11.332Z,100799.03
2022-08-25T02:11:42.289Z,100796.91
2022-08-25T02:14:12.260Z,100802.41
2022-08-25T02:16:44.887Z,100801.53
2022-08-25T02:19:12.949Z,100797.56
2022-08-25T02:21:40.791Z,100795.63
2022-08-25T02:24:09.335Z,100798.13
2022-08-25T02:26:37.141Z,100802.56
2022-08-25T02:29:07.557Z,100792.09
2022-08-25T02:31:36.366Z,100805.19
2022-08-25T02:34:04.567Z,100800.00
2022-08-25T02:36:32.565Z,100804.81
2022-08-25T02:39:01.047Z,100795.00
2022-08-25T02:41:31.229Z,100796.66
2022-08-25T02:44:05.006Z,100798.28
2022-08-25T02:46:32.981Z,100801.16
2022-08-25T02:49:00.963Z,100786.78
2022-08-25T02:51:30.411Z,100787.56
2022-08-25T02:54:00.293Z,100791.06
2022-08-25T02:56:31.208Z,100789.69
2022-08-25T02:59:00.558Z,100787.34
2022-08-25T03:01:29.884Z,100797.50
2022-08-25T03:03:58.225Z,100796.41
2022-08-25T03:06:28.101Z,100795.78
2022-08-25T03:08:56.405Z,100795.94
2022-08-25T03:11:26.734Z,100787.34
2022-08-25T03:13:54.834Z,100788.59
2022-08-25T03:16:23.777Z,100794.63
2022-08-25T03:18:56.675Z,100783.44
2022-08-25T03:21:26.554Z,100790.34
2022-08-25T03:23:54.400Z,100779.25
2022-08-25T03:26:41.428Z,100778.53
2022-08-25T03:29:10.579Z,100787.44
2022-08-25T03:31:39.106Z,100787.44
2022-08-25T03:34:07.186Z,100785.53
2022-08-25T03:36:36.267Z,100781.84
2022-08-25T03:39:04.643Z,100780.72
2022-08-25T03:41:34.226Z,100777.13
2022-08-25T03:44:05.703Z,100780.34
2022-08-25T03:46:53.882Z,100773.69
2022-08-25T03:49:24.053Z,100778.31
2022-08-25T03:51:54.107Z,100785.06
2022-08-25T03:54:25.611Z,100778.50
2022-08-25T03:56:53.691Z,100774.22
2022-08-25T03:59:21.951Z,100770.13
2022-08-25T04:01:54.829Z,100765.72
2022-08-25T04:04:23.567Z,100779.78
2022-08-25T04:06:51.489Z,100774.94
2022-08-25T04:09:19.986Z,100772.06
2022-08-25T04:11:51.945Z,100770.81
2022-08-25T04:14:21.962Z,100765.91
2022-08-25T04:17:01.748Z,100766.41
2022-08-25T04:19:29.669Z,100758.72
2022-08-25T04:21:57.603Z,100762.69
2022-08-25T04:24:25.581Z,100763.59
2022-08-25T04:26:54.210Z,100772.41
2022-08-25T04:29:24.381Z,100772.25
2022-08-25T04:31:54.562Z,100765.94
2022-08-25T04:34:29.392Z,100762.31
2022-08-25T04:37:01.525Z,100763.00
2022-08-25T04:39:29.697Z,100764.19
2022-08-25T04:41:58.082Z,100770.13
2022-08-25T04:44:25.955Z,100770.31
2022-08-25T04:46:54.164Z,100773.03
2022-08-25T04:49:22.127Z,100774.69
2022-08-25T04:51:50.031Z,100777.28
2022-08-25T04:54:21.861Z,100778.84
2022-08-25T04:56:54.661Z,100777.94
2022-08-25T04:59:30.028Z,100784.59
2022-08-25T05:02:03.213Z,100772.44
2022-08-25T05:04:32.831Z,100780.72
2022-08-25T05:07:01.436Z,100783.19
2022-08-25T05:09:32.392Z,100783.72
2022-08-25T05:12:02.912Z,100770.63
2022-08-25T05:14:32.582Z,100765.38
2022-08-25T05:17:00.577Z,100765.38
2022-08-25T05:19:28.612Z,100767.84
2022-08-25T05:21:58.031Z,100768.13
2022-08-25T05:25:25.305Z,100768.69
2022-08-25T05:28:12.287Z,100766.34
2022-08-25T05:30:42.100Z,100765.09
2022-08-25T05:33:11.525Z,100765.00
2022-08-25T05:35:40.043Z,100765.00
2022-08-25T05:38:08.054Z,100768.38
2022-08-25T05:40:43.513Z,100763.78
2022-08-25T05:43:12.574Z,100769.19
2022-08-25T05:45:41.353Z,100778.16
2022-08-25T05:48:09.266Z,100774.16
2022-08-25T05:50:37.183Z,100772.78
2022-08-25T05:53:05.664Z,100764.69
2022-08-25T05:55:33.542Z,100766.56
2022-08-25T05:58:01.449Z,100771.03
2022-08-25T06:00:29.560Z,100755.16
2022-08-25T06:02:57.875Z,100767.59
2022-08-25T06:05:25.880Z,100755.50
2022-08-25T06:07:53.827Z,100758.56
2022-08-25T06:10:22.248Z,100768.00
2022-08-25T06:12:50.367Z,100752.44
2022-08-25T06:15:21.434Z,100756.34
2022-08-25T06:17:50.708Z,100762.59
2022-08-25T06:20:25.868Z,100753.44
2022-08-25T06:22:54.473Z,100753.44
2022-08-25T06:25:24.863Z,100749.03
2022-08-25T06:27:54.581Z,100747.28
2022-08-25T06:30:28.830Z,100740.88
2022-08-25T06:32:57.206Z,100745.75
2022-08-25T06:39:29.534Z,100736.25
2022-08-25T06:41:58.028Z,100739.63
2022-08-25T06:44:27.937Z,100739.63
2022-08-25T06:46:56.061Z,100742.84
2022-08-25T06:49:29.293Z,100741.97
2022-08-25T06:51:59.073Z,100745.25
2022-08-25T06:54:27.003Z,100742.88
2022-08-25T06:56:54.983Z,100747.75
2022-08-25T06:59:23.102Z,100738.06
2022-08-25T07:01:51.220Z,100742.09
2022-08-25T07:04:21.297Z,100740.97
2022-08-25T07:06:49.210Z,100732.88
2022-08-25T07:13:17.700Z,100733.75
2022-08-25T07:15:46.027Z,100726.56
2022-08-25T07:18:14.423Z,100729.75
2022-08-25T07:20:43.169Z,100725.03
2022-08-25T07:23:11.214Z,100730.25
2022-08-25T07:25:39.290Z,100730.25
2022-08-25T07:28:07.229Z,100717.41
2022-08-25T07:30:37.399Z,100725.41
2022-08-25T07:33:06.780Z,100724.22
2022-08-25T07:35:37.832Z,100715.81
2022-08-25T07:38:10.159Z,100716.59
2022-08-25T07:40:42.989Z,100716.59
2022-08-25T07:43:11.311Z,100713.78
2022-08-25T07:45:46.862Z,100715.00
2022-08-25T07:48:20.010Z,100707.75
2022-08-25T07:50:49.603Z,100718.63
2022-08-25T07:53:17.977Z,100720.63
2022-08-25T07:55:47.182Z,100717.38
2022-08-25T07:58:15.931Z,100718.19
2022-08-25T08:00:50.747Z,100714.13
2022-08-25T08:03:42.305Z,100722.97
2022-08-25T08:06:12.290Z,100722.13
2022-08-25T08:08:54.693Z,100733.03
2022-08-25T08:11:34.087Z,100725.81
2022-08-25T08:14:09.723Z,100720.13
2022-08-25T08:16:39.099Z,100720.53
2022-08-25T08:19:12.908Z,100722.97
2022-08-25T08:21:57.155Z,100724.56
2022-08-25T08:24:54.308Z,100716.88
2022-08-25T08:27:25.042Z,100723.28
2022-08-25T08:29:53.867Z,100716.47
2022-08-25T08:32:23.137Z,100716.84
2022-08-25T08:34:59.564Z,100719.59
2022-08-25T08:37:28.261Z,100716.38
2022-08-25T08:39:56.600Z,100713.97
2022-08-25T08:42:46.716Z,100722.75
2022-08-25T08:45:40.433Z,100723.50
2022-08-25T08:48:33.592Z,100703.72
2022-08-25T08:51:12.981Z,100707.34
2022-08-25T08:54:15.199Z,100710.88
2022-08-25T08:56:48.131Z,100708.78
2022-08-25T08:59:21.893Z,100717.66
2022-08-25T09:02:00.721Z,100703.94
2022-08-25T09:04:48.763Z,100701.47
2022-08-25T09:07:26.409Z,100694.22
2022-08-25T09:09:54.548Z,100692.16
2022-08-25T09:12:48.292Z,100686.84
2022-08-25T09:16:02.830Z,100685.19
2022-08-25T09:18:57.741Z,100682.75
2022-08-25T09:21:40.372Z,100681.50
2022-08-25T09:24:26.668Z,100679.84
2022-08-25T09:27:47.331Z,100670.41
2022-08-25T09:30:52.484Z,100672.81
2022-08-25T09:33:23.332Z,100673.88
2022-08-25T09:35:53.883Z,100673.78
2022-08-25T09:38:22.320Z,100667.72
2022-08-25T09:40:54.732Z,100671.69
2022-08-25T09:43:32.306Z,100670.44
2022-08-25T09:46:09.297Z,100678.91
2022-08-25T09:48:57.837Z,100673.06
2022-08-25T09:51:42.839Z,100661.72
2022-08-25T09:54:14.465Z,100658.56
2022-08-25T09:57:09.296Z,100657.44
2022-08-25T09:59:38.355Z,100657.69
2022-08-25T10:02:28.801Z,100658.28
2022-08-25T10:04:57.439Z,100651.59
2022-08-25T10:07:30.333Z,100652.72
2022-08-25T10:10:17.915Z,100647.19
2022-08-25T10:12:51.273Z,100653.84
2022-08-25T10:15:29.632Z,100649.78
2022-08-25T10:18:25.937Z,100637.50
2022-08-25T10:21:17.660Z,100647.34
2022-08-25T10:23:56.264Z,100644.47
2022-08-25T10:26:46.867Z,100643.59
2022-08-25T10:29:29.019Z,100645.47
2022-08-25T10:32:19.142Z,100635.25
2022-08-25T10:39:02.385Z,100636.03
2022-08-25T10:41:33.960Z,100629.69
2022-08-25T10:44:40.050Z,100620.66
2022-08-25T10:47:26.410Z,100625.41
2022-08-25T10:50:05.766Z,100616.56
2022-08-25T10:52:49.014Z,100615.75
2022-08-25T10:55:40.359Z,100616.50
2022-08-25T10:58:54.516Z,100622.75
2022-08-25T11:01:42.900Z,100620.00
2022-08-25T11:04:47.202Z,100613.28
2022-08-25T11:07:35.820Z,100605.00
2022-08-25T11:10:47.925Z,100604.41
2022-08-25T11:13:22.839Z,100605.59
2022-08-25T11:16:18.760Z,100603.06
2022-08-25T11:18:55.525Z,100602.06
2022-08-25T11:22:03.173Z,100592.50
2022-08-25T11:24:42.012Z,100586.66
2022-08-25T11:27:24.403Z,100584.53
2022-08-25T11:30:14.803Z,100587.09
2022-08-25T11:32:48.082Z,100586.50
2022-08-25T11:35:29.876Z,100582.59
2022-08-25T11:38:18.858Z,100581.63
2022-08-25T11:41:29.127Z,100574.06
2022-08-25T11:44:13.516Z,100570.00
2022-08-25T11:46:53.064Z,100569.28
2022-08-25T11:49:54.857Z,100561.22
2022-08-25T11:52:34.739Z,100556.44
2022-08-25T11:55:07.578Z,100559.69
2022-08-25T11:57:39.545Z,100561.22
2022-08-25T12:04:15.162Z,100554.09
2022-08-25T12:07:17.981Z,100555.03
2022-08-25T12:09:53.944Z,100557.44
2022-08-25T12:12:51.019Z,100552.47
2022-08-25T12:15:27.632Z,100544.28
2022-08-25T12:18:17.023Z,100543.88
2022-08-25T12:20:59.005Z,100548.19
2022-08-25T12:23:39.912Z,100548.28
2022-08-25T12:26:28.110Z,100543.66
2022-08-25T12:29:23.311Z,100541.59
2022-08-25T12:31:57.388Z,100552.00
2022-08-25T12:35:11.619Z,100541.38
2022-08-25T12:38:01.588Z,100547.91
2022-08-25T12:40:33.774Z,100537.56
2022-08-25T12:43:11.701Z,100536.38
2022-08-25T12:45:44.245Z,100532.09
2022-08-25T12:48:28.646Z,100529.66
2022-08-25T12:51:10.693Z,100530.47
2022-08-25T12:54:22.536Z,100530.75
2022-08-25T12:56:57.316Z,100526.56
2022-08-25T12:59:37.703Z,100525.94
2022-08-25T13:02:51.915Z,100516.84
2022-08-25T13:05:25.964Z,100512.75
2022-08-25T13:07:59.135Z,100527.44
2022-08-25T13:10:52.679Z,100516.16
2022-08-25T13:13:59.332Z,100516.25
2022-08-25T13:16:30.792Z,100515.25
2022-08-25T13:19:01.986Z,100518.53
2022-08-25T13:21:37.617Z,100513.66
2022-08-25T13:24:09.919Z,100506.94
2022-08-25T13:26:48.565Z,100511.94
2022-08-25T13:29:23.724Z,100520.00
2022-08-25T13:31:58.275Z,100504.34
2022-08-25T13:34:34.851Z,100510.72
2022-08-25T13:37:32.524Z,100504.34
2022-08-25T13:40:24.788Z,100503.19
2022-08-25T13:43:02.792Z,100495.00
2022-08-25T13:45:41.079Z,100491.47
2022-08-25T13:48:22.362Z,100489.88
2022-08-25T13:50:54.708Z,100487.84
2022-08-25T13:53:31.724Z,100488.25
2022-08-25T13:56:05.684Z,100489.66
2022-08-25T13:58:44.667Z,100485.88
2022-08-25T14:01:47.756Z,100481.31
2022-08-25T14:04:33.407Z,100470.59
2022-08-25T14:07:21.685Z,100472.06
2022-08-25T14:10:01.798Z,100472.75
2022-08-25T14:12:49.681Z,100468.81
2022-08-25T14:15:20.444Z,100473.31
2022-08-25T14:18:27.052Z,100474.88
2022-08-25T14:20:57.780Z,100481.47
2022-08-25T14:23:29.077Z,100479.63
2022-08-25T14:25:58.360Z,100466.63
2022-08-25T14:28:29.542Z,100467.69
2022-08-25T14:31:01.480Z,100466.09
2022-08-25T14:33:35.358Z,100471.53
2022-08-25T14:36:05.480Z,100475.88
2022-08-25T14:38:35.470Z,100464.97
2022-08-25T14:41:03.562Z,100470.41
2022-08-25T14:43:32.411Z,100458.50
2022-08-25T14:46:19.905Z,100448.00
2022-08-25T14:48:54.522Z,100453.34
2022-08-25T14:51:24.874Z,100465.09
2022-08-25T14:53:59.808Z,100454.47
2022-08-25T14:56:29.346Z,100459.03
2022-08-25T14:58:57.631Z,100448.47
2022-08-25T15:01:30.034Z,100458.78
2022-08-25T15:04:23.527Z,100450.75
2022-08-25T15:06:59.400Z,100460.16
2022-08-25T15:09:33.410Z,100459.44
2022-08-25T15:12:01.768Z,100443.28
2022-08-25T15:14:33.315Z,100439.28
2022-08-25T15:17:02.442Z,100443.91
2022-08-25T15:19:30.575Z,100431.19
2022-08-25T15:21:59.357Z,100429.81
2022-08-25T15:24:28.902Z,100431.31
2022-08-25T15:27:00.346Z,100432.44
2022-08-25T15:29:30.905Z,100426.81
2022-08-25T15:32:02.143Z,100424.56
2022-08-25T15:34:30.954Z,100431.16
2022-08-25T15:37:08.103Z,100431.31
2022-08-25T15:39:37.335Z,100420.72
2022-08-25T15:42:06.455Z,100423.81
2022-08-25T15:44:41.845Z,100434.00
2022-08-25T15:47:21.672Z,100417.69
2022-08-25T15:50:06.563Z,100426.81
2022-08-25T15:52:46.439Z,100419.00
2022-08-25T15:55:17.905Z,100420.16
2022-08-25T15:57:49.773Z,100412.44
2022-08-25T16:00:18.984Z,100413.25
2022-08-25T16:02:53.357Z,100404.56
2022-08-25T16:05:25.930Z,100409.72
2022-08-25T16:07:54.484Z,100404.56
2022-08-25T16:10:22.510Z,100399.44
2022-08-25T16:12:50.655Z,100399.06
2022-08-25T16:15:23.949Z,100392.16
2022-08-25T16:17:58.723Z,100385.44
2022-08-25T16:20:28.430Z,100395.19
2022-08-25T16:22:57.107Z,100385.44
2022-08-25T16:25:25.731Z,100382.06
2022-08-25T16:27:53.869Z,100388.88
2022-08-25T16:30:21.996Z,100383.44
2022-08-25T16:32:51.535Z,100380.31
2022-08-25T16:35:22.907Z,100379.47
2022-08-25T16:37:53.217Z,100375.47
2022-08-25T16:40:24.733Z,100378.66
2022-08-25T16:42:55.199Z,100367.66
2022-08-25T16:45:23.464Z,100376.69
2022-08-25T16:47:51.780Z,100375.09
2022-08-25T16:50:19.817Z,100368.78
2022-08-25T16:53:07.916Z,100374.69
2022-08-25T16:55:39.874Z,100352.72
2022-08-25T16:58:13.365Z,100369.59
2022-08-25T17:00:44.010Z,100361.81
2022-08-25T17:03:13.326Z,100353.13
2022-08-25T17:05:43.036Z,100353.78
2022-08-25T17:08:30.587Z,100341.22
2022-08-25T17:11:18.020Z,100334.75
2022-08-25T17:13:50.737Z,100332.72
2022-08-25T17:16:21.731Z,100346.50
2022-08-25T17:18:49.786Z,100356.81
2022-08-25T17:21:24.263Z,100354.56
2022-08-25T17:23:54.276Z,100349.56
2022-08-25T17:26:27.853Z,100348.13
2022-08-25T17:28:59.380Z,100354.78
2022-08-25T17:31:31.181Z,100347.16
2022-08-25T17:33:59.543Z,100348.47
2022-08-25T17:36:27.713Z,100350.66
2022-08-25T17:38:56.813Z,100362.78
2022-08-25T17:41:26.124Z,100347.91
2022-08-25T17:43:54.194Z,100365.59
2022-08-25T17:46:22.082Z,100362.63
2022-08-25T17:48:52.103Z,100365.09
2022-08-25T17:51:20.660Z,100365.19
2022-08-25T17:53:49.606Z,100361.97
2022-08-25T17:56:19.646Z,100371.34
2022-08-25T17:58:48.681Z,100365.88
2022-08-25T18:01:23.437Z,100374.78
2022-08-25T18:03:52.186Z,100359.91
2022-08-25T18:06:23.946Z,100375.47
2022-08-25T18:08:58.707Z,100381.84
2022-08-25T18:11:28.936Z,100375.53
2022-08-25T18:14:00.260Z,100385.16
2022-08-25T18:16:28.922Z,100381.25
2022-08-25T18:18:57.186Z,100376.53
2022-08-25T18:21:25.511Z,100371.97
2022-08-25T18:23:58.988Z,100376.06
2022-08-25T18:26:27.601Z,100381.50
2022-08-25T18:28:55.909Z,100384.94
2022-08-25T18:31:25.491Z,100382.53
2022-08-25T18:33:53.471Z,100392.31
2022-08-25T18:36:21.439Z,100393.09
2022-08-25T18:39:09.573Z,100385.94
2022-08-25T18:41:40.919Z,100392.75
2022-08-25T18:44:11.108Z,100397.50
2022-08-25T18:46:40.054Z,100395.44
2022-08-25T18:49:09.489Z,100408.88
2022-08-25T18:51:41.949Z,100405.16
2022-08-25T18:54:23.343Z,100405.09
2022-08-25T18:56:53.957Z,100416.81
2022-08-25T18:59:23.818Z,100412.06
2022-08-25T19:01:54.289Z,100417.44
2022-08-25T19:04:28.434Z,100421.03
2022-08-25T19:07:01.665Z,100422.09
2022-08-25T19:09:30.692Z,100424.28
2022-08-25T19:11:59.928Z,100431.81
2022-08-25T19:14:28.650Z,100422.47
2022-08-25T19:16:58.136Z,100436.91
2022-08-25T19:19:26.582Z,100422.25
2022-08-25T19:21:55.492Z,100443.94
2022-08-25T19:24:26.516Z,100434.28
2022-08-25T19:26:54.945Z,100436.38
2022-08-25T19:29:24.257Z,100450.31
2022-08-25T19:31:52.459Z,100447.63
2022-08-25T19:34:28.396Z,100450.59
2022-08-25T19:37:00.422Z,100437.25
2022-08-25T19:39:30.615Z,100451.22
2022-08-25T19:41:58.970Z,100448.63
2022-08-25T19:44:28.170Z,100444.19
2022-08-25T19:46:56.690Z,100461.94
2022-08-25T19:49:31.685Z,100445.88
2022-08-25T19:52:06.944Z,100447.69
2022-08-25T19:54:44.480Z,100457.84
2022-08-25T19:57:13.500Z,100460.66
2022-08-25T19:59:56.156Z,100455.06
2022-08-25T20:02:29.675Z,100466.09
2022-08-25T20:04:59.933Z,100457.44
2022-08-25T20:07:30.734Z,100462.41
2022-08-25T20:10:00.251Z,100468.56
2022-08-25T20:12:29.362Z,100472.63
2022-08-25T20:14:57.946Z,100471.47
2022-08-25T20:17:28.266Z,100475.91
2022-08-25T20:20:00.179Z,100477.94
2022-08-25T20:22:31.112Z,100474.41
2022-08-25T20:25:13.846Z,100467.59
2022-08-25T20:27:48.366Z,100471.22
2022-08-25T20:30:23.263Z,100475.69
2022-08-25T20:32:57.665Z,100472.88
2022-08-25T20:35:28.568Z,100468.88
2022-08-25T20:37:59.779Z,100473.28
2022-08-25T20:40:31.882Z,100482.94
2022-08-25T20:43:03.281Z,100476.13
2022-08-25T20:45:33.323Z,100487.41
2022-08-25T20:48:01.336Z,100480.94
2022-08-25T20:50:30.053Z,100492.22
2022-08-25T20:52:59.392Z,100493.84
2022-08-25T20:55:29.033Z,100491.44
2022-08-25T20:57:56.926Z,100492.66
2022-08-25T21:00:25.137Z,100499.09
2022-08-25T21:02:53.463Z,100499.53
2022-08-25T21:05:21.647Z,100497.09
2022-08-25T21:07:49.586Z,100502.75
2022-08-25T21:10:20.438Z,100510.78
2022-08-25T21:12:53.457Z,100506.75
2022-08-25T21:15:21.561Z,100509.59
2022-08-25T21:17:53.209Z,100503.97
2022-08-25T21:20:24.265Z,100502.34
2022-08-25T21:22:53.470Z,100503.16
2022-08-25T21:25:21.937Z,100509.19
2022-08-25T21:27:49.841Z,100502.75
2022-08-25T21:30:18.251Z,100502.75
2022-08-25T21:32:53.812Z,100509.59
2022-08-25T21:35:23.790Z,100510.38
2022-08-25T21:37:53.872Z,100515.59
2022-08-25T21:40:23.180Z,100508.38
2022-08-25T21:42:52.534Z,100516.41
2022-08-25T21:45:21.791Z,100510.38
2022-08-25T21:47:50.022Z,100514.41
2022-08-25T21:50:20.166Z,100516.38
2022-08-25T21:53:04.045Z,100512.34
2022-08-25T21:55:38.283Z,100523.97
2022-08-25T21:58:10.877Z,100519.56
2022-08-25T22:00:38.690Z,100514.75
2022-08-25T22:03:07.387Z,100514.75
2022-08-25T22:05:37.421Z,100509.09
2022-08-25T22:08:05.553Z,100508.31
2022-08-25T22:10:33.433Z,100506.72
2022-08-25T22:13:01.790Z,100509.91
2022-08-25T22:15:30.579Z,100514.69
2022-08-25T22:17:58.369Z,100523.56
2022-08-25T22:20:26.182Z,100524.72
2022-08-25T22:22:56.788Z,100533.50
2022-08-25T22:25:25.072Z,100533.91
2022-08-25T22:27:57.072Z,100537.91
2022-08-25T22:30:25.944Z,100532.28
2022-08-25T22:32:58.830Z,100529.09
2022-08-25T22:35:27.842Z,100538.66
2022-08-25T22:37:55.720Z,100535.47
2022-08-25T22:40:24.031Z,100537.06
2022-08-25T22:43:06.289Z,100535.47
2022-08-25T22:45:39.301Z,100533.47
2022-08-25T22:48:07.303Z,100537.06
2022-08-25T22:50:36.722Z,100529.44
2022-08-25T22:53:04.653Z,100535.47
2022-08-25T22:55:32.977Z,100532.66
2022-08-25T22:58:56.814Z,100533.50
2022-08-25T23:01:24.654Z,100524.66
2022-08-25T23:03:52.914Z,100519.44
2022-08-25T23:06:24.584Z,100515.44
2022-08-25T23:08:54.825Z,100517.41
2022-08-25T23:11:25.048Z,100517.41
2022-08-25T23:13:58.175Z,100508.19
2022-08-25T23:16:28.695Z,100513.38
2022-08-25T23:18:56.511Z,100521.28
2022-08-25T23:21:43.303Z,100520.16
2022-08-25T23:24:14.558Z,100515.78
2022-08-25T23:27:03.853Z,100515.41
2022-08-25T23:29:34.359Z,100511.00
2022-08-25T23:32:02.658Z,100503.00
2022-08-25T23:34:30.578Z,100500.56
2022-08-25T23:37:01.790Z,100501.28
2022-08-25T23:39:29.841Z,100502.06
2022-08-25T23:41:58.768Z,100496.06
2022-08-25T23:44:28.207Z,100499.69
2022-08-25T23:46:56.022Z,100504.06
2022-08-25T23:49:25.812Z,100497.66
2022-08-25T23:51:55.726Z,100493.66
2022-08-25T23:54:31.002Z,100497.28
2022-08-25T23:56:59.768Z,100488.81
2022-08-25T23:59:27.715Z,100486.84
